sensor_id;sensor_type;location;lat;lon;timestamp;P1;durP1;ratioP1;P2;durP2;ratioP2
803;SDS011;25687;49.976;8.240;2023-06-14T00:01:24;6.00;;;3.77;;
803;SDS011;25687;49.976;8.240;2023-06-14T00:03:50;7.17;;;4.30;;
803;SDS011;25687;49.976;8.240;2023-06-14T00:06:15;6.77;;;4.00;;
803;SDS011;25687;49.976;8.240;2023-06-14T00:08:40;4.00;;;3.57;;
803;SDS011;25687;49.976;8.240;2023-06-14T00:11:06;5.73;;;3.83;;
803;SDS011;25687;49.976;8.240;2023-06-14T00:13:32;6.90;;;4.03;;
803;SDS011;25687;49.976;8.240;2023-06-14T00:15:57;6.13;;;4.30;;
803;SDS011;25687;49.976;8.240;2023-06-14T00:18:23;5.90;;;4.50;;
803;SDS011;25687;49.976;8.240;2023-06-14T00:20:54;4.47;;;3.93;;
803;SDS011;25687;49.976;8.240;2023-06-14T00:23:19;5.73;;;4.30;;
803;SDS011;25687;49.976;8.240;2023-06-14T00:25:45;6.37;;;4.17;;
803;SDS011;25687;49.976;8.240;2023-06-14T00:28:10;5.47;;;4.67;;
803;SDS011;25687;49.976;8.240;2023-06-14T00:30:35;8.50;;;4.40;;
803;SDS011;25687;49.976;8.240;2023-06-14T00:33:01;4.87;;;3.73;;
803;SDS011;25687;49.976;8.240;2023-06-14T00:35:26;6.07;;;4.03;;
803;SDS011;25687;49.976;8.240;2023-06-14T00:37:51;9.17;;;4.53;;
803;SDS011;25687;49.976;8.240;2023-06-14T00:40:17;9.50;;;4.57;;
803;SDS011;25687;49.976;8.240;2023-06-14T00:42:42;4.93;;;4.07;;
803;SDS011;25687;49.976;8.240;2023-06-14T00:45:08;4.73;;;4.10;;
803;SDS011;25687;49.976;8.240;2023-06-14T00:47:34;4.60;;;4.00;;
803;SDS011;25687;49.976;8.240;2023-06-14T00:50:02;7.37;;;4.77;;
803;SDS011;25687;49.976;8.240;2023-06-14T00:52:28;4.27;;;3.87;;
803;SDS011;25687;49.976;8.240;2023-06-14T00:54:54;5.07;;;4.20;;
803;SDS011;25687;49.976;8.240;2023-06-14T00:57:19;8.10;;;3.70;;
803;SDS011;25687;49.976;8.240;2023-06-14T00:59:47;6.40;;;4.50;;
803;SDS011;25687;49.976;8.240;2023-06-14T01:02:13;9.33;;;4.30;;
803;SDS011;25687;49.976;8.240;2023-06-14T01:04:43;4.57;;;4.17;;
803;SDS011;25687;49.976;8.240;2023-06-14T01:12:31;6.20;;;3.97;;
803;SDS011;25687;49.976;8.240;2023-06-14T01:15:00;5.27;;;4.60;;
803;SDS011;25687;49.976;8.240;2023-06-14T01:17:27;6.07;;;4.40;;
803;SDS011;25687;49.976;8.240;2023-06-14T01:19:57;6.90;;;4.20;;
803;SDS011;25687;49.976;8.240;2023-06-14T01:22:31;5.90;;;4.50;;
803;SDS011;25687;49.976;8.240;2023-06-14T01:24:57;4.83;;;4.33;;
803;SDS011;25687;49.976;8.240;2023-06-14T01:27:23;4.90;;;3.60;;
803;SDS011;25687;49.976;8.240;2023-06-14T01:29:53;7.03;;;3.93;;
803;SDS011;25687;49.976;8.240;2023-06-14T01:32:21;4.10;;;3.80;;
803;SDS011;25687;49.976;8.240;2023-06-14T01:34:48;6.63;;;4.13;;
803;SDS011;25687;49.976;8.240;2023-06-14T01:37:13;4.37;;;3.97;;
803;SDS011;25687;49.976;8.240;2023-06-14T01:39:39;7.20;;;4.20;;
803;SDS011;25687;49.976;8.240;2023-06-14T01:42:07;8.13;;;3.73;;
803;SDS011;25687;49.976;8.240;2023-06-14T01:44:32;4.63;;;4.00;;
803;SDS011;25687;49.976;8.240;2023-06-14T01:47:00;5.37;;;4.00;;
803;SDS011;25687;49.976;8.240;2023-06-14T01:49:26;6.50;;;4.20;;
803;SDS011;25687;49.976;8.240;2023-06-14T01:51:52;5.30;;;3.60;;
803;SDS011;25687;49.976;8.240;2023-06-14T01:54:17;5.87;;;4.13;;
803;SDS011;25687;49.976;8.240;2023-06-14T01:56:42;5.53;;;3.93;;
803;SDS011;25687;49.976;8.240;2023-06-14T01:59:08;4.30;;;3.83;;
803;SDS011;25687;49.976;8.240;2023-06-14T02:01:33;5.67;;;3.93;;
803;SDS011;25687;49.976;8.240;2023-06-14T02:03:59;3.90;;;3.20;;
803;SDS011;25687;49.976;8.240;2023-06-14T02:06:26;6.80;;;4.10;;
803;SDS011;25687;49.976;8.240;2023-06-14T02:08:51;4.40;;;4.00;;
803;SDS011;25687;49.976;8.240;2023-06-14T02:11:16;8.97;;;4.30;;
803;SDS011;25687;49.976;8.240;2023-06-14T02:13:42;4.20;;;3.73;;
803;SDS011;25687;49.976;8.240;2023-06-14T02:16:07;9.80;;;4.10;;
803;SDS011;25687;49.976;8.240;2023-06-14T02:18:32;9.13;;;4.07;;
803;SDS011;25687;49.976;8.240;2023-06-14T02:20:58;7.07;;;3.63;;
803;SDS011;25687;49.976;8.240;2023-06-14T02:23:23;4.27;;;3.87;;
803;SDS011;25687;49.976;8.240;2023-06-14T02:25:48;5.43;;;3.70;;
803;SDS011;25687;49.976;8.240;2023-06-14T02:28:13;5.20;;;4.07;;
803;SDS011;25687;49.976;8.240;2023-06-14T02:30:39;7.90;;;4.10;;
803;SDS011;25687;49.976;8.240;2023-06-14T02:33:05;5.97;;;4.20;;
803;SDS011;25687;49.976;8.240;2023-06-14T02:35:31;6.73;;;4.43;;
803;SDS011;25687;49.976;8.240;2023-06-14T02:37:56;5.93;;;4.17;;
803;SDS011;25687;49.976;8.240;2023-06-14T02:40:21;5.87;;;4.03;;
803;SDS011;25687;49.976;8.240;2023-06-14T02:42:47;5.37;;;4.20;;
803;SDS011;25687;49.976;8.240;2023-06-14T02:45:12;5.67;;;4.43;;
803;SDS011;25687;49.976;8.240;2023-06-14T02:47:38;4.10;;;3.70;;
803;SDS011;25687;49.976;8.240;2023-06-14T02:50:03;4.30;;;3.57;;
803;SDS011;25687;49.976;8.240;2023-06-14T02:52:29;4.37;;;3.67;;
803;SDS011;25687;49.976;8.240;2023-06-14T02:54:54;7.43;;;3.67;;
803;SDS011;25687;49.976;8.240;2023-06-14T02:57:20;9.30;;;4.03;;
803;SDS011;25687;49.976;8.240;2023-06-14T02:59:48;4.90;;;3.53;;
803;SDS011;25687;49.976;8.240;2023-06-14T03:02:14;6.00;;;3.87;;
803;SDS011;25687;49.976;8.240;2023-06-14T03:04:39;7.63;;;4.17;;
803;SDS011;25687;49.976;8.240;2023-06-14T03:07:05;4.47;;;3.77;;
803;SDS011;25687;49.976;8.240;2023-06-14T03:09:37;4.57;;;4.03;;
803;SDS011;25687;49.976;8.240;2023-06-14T03:12:03;4.43;;;3.80;;
803;SDS011;25687;49.976;8.240;2023-06-14T03:14:31;9.73;;;3.83;;
803;SDS011;25687;49.976;8.240;2023-06-14T03:16:56;7.37;;;5.23;;
803;SDS011;25687;49.976;8.240;2023-06-14T03:19:22;7.27;;;4.47;;
803;SDS011;25687;49.976;8.240;2023-06-14T03:21:48;4.33;;;3.70;;
803;SDS011;25687;49.976;8.240;2023-06-14T03:24:14;5.03;;;3.57;;
803;SDS011;25687;49.976;8.240;2023-06-14T03:26:41;8.40;;;3.77;;
803;SDS011;25687;49.976;8.240;2023-06-14T03:29:06;7.03;;;3.80;;
803;SDS011;25687;49.976;8.240;2023-06-14T03:31:32;5.17;;;4.20;;
803;SDS011;25687;49.976;8.240;2023-06-14T03:33:57;4.43;;;3.77;;
803;SDS011;25687;49.976;8.240;2023-06-14T03:36:23;5.93;;;3.33;;
803;SDS011;25687;49.976;8.240;2023-06-14T03:38:48;5.83;;;3.90;;
803;SDS011;25687;49.976;8.240;2023-06-14T03:41:13;6.73;;;3.60;;
803;SDS011;25687;49.976;8.240;2023-06-14T03:43:39;5.90;;;3.40;;
803;SDS011;25687;49.976;8.240;2023-06-14T03:46:04;8.77;;;4.10;;
803;SDS011;25687;49.976;8.240;2023-06-14T03:48:29;6.00;;;4.20;;
803;SDS011;25687;49.976;8.240;2023-06-14T03:50:55;7.13;;;3.43;;
803;SDS011;25687;49.976;8.240;2023-06-14T03:53:21;6.33;;;4.30;;
803;SDS011;25687;49.976;8.240;2023-06-14T03:55:48;5.97;;;4.13;;
803;SDS011;25687;49.976;8.240;2023-06-14T03:58:14;5.03;;;3.63;;
803;SDS011;25687;49.976;8.240;2023-06-14T04:00:40;5.67;;;4.00;;
803;SDS011;25687;49.976;8.240;2023-06-14T04:03:05;4.53;;;4.13;;
803;SDS011;25687;49.976;8.240;2023-06-14T04:05:31;5.87;;;3.77;;
803;SDS011;25687;49.976;8.240;2023-06-14T04:07:56;4.37;;;3.97;;
803;SDS011;25687;49.976;8.240;2023-06-14T04:10:22;5.37;;;3.70;;
803;SDS011;25687;49.976;8.240;2023-06-14T04:12:47;7.73;;;3.93;;
803;SDS011;25687;49.976;8.240;2023-06-14T04:15:14;8.80;;;4.50;;
803;SDS011;25687;49.976;8.240;2023-06-14T04:17:39;9.77;;;4.30;;
803;SDS011;25687;49.976;8.240;2023-06-14T04:20:04;5.77;;;4.03;;
803;SDS011;25687;49.976;8.240;2023-06-14T04:22:31;5.93;;;3.80;;
803;SDS011;25687;49.976;8.240;2023-06-14T04:24:57;7.57;;;3.70;;
803;SDS011;25687;49.976;8.240;2023-06-14T04:27:23;5.33;;;3.80;;
803;SDS011;25687;49.976;8.240;2023-06-14T04:29:50;7.13;;;3.90;;
803;SDS011;25687;49.976;8.240;2023-06-14T04:32:25;8.27;;;4.20;;
803;SDS011;25687;49.976;8.240;2023-06-14T04:34:53;5.70;;;3.73;;
803;SDS011;25687;49.976;8.240;2023-06-14T04:37:19;6.47;;;3.77;;
803;SDS011;25687;49.976;8.240;2023-06-14T04:39:46;4.23;;;3.70;;
803;SDS011;25687;49.976;8.240;2023-06-14T04:42:12;5.93;;;4.00;;
803;SDS011;25687;49.976;8.240;2023-06-14T04:44:38;9.83;;;3.83;;
803;SDS011;25687;49.976;8.240;2023-06-14T04:47:04;4.93;;;3.83;;
803;SDS011;25687;49.976;8.240;2023-06-14T04:49:31;7.43;;;4.10;;
803;SDS011;25687;49.976;8.240;2023-06-14T04:51:59;3.77;;;3.43;;
803;SDS011;25687;49.976;8.240;2023-06-14T04:54:26;9.63;;;4.10;;
803;SDS011;25687;49.976;8.240;2023-06-14T04:56:52;5.33;;;3.77;;
803;SDS011;25687;49.976;8.240;2023-06-14T04:59:21;14.77;;;3.80;;
803;SDS011;25687;49.976;8.240;2023-06-14T05:01:48;6.77;;;4.00;;
803;SDS011;25687;49.976;8.240;2023-06-14T05:04:14;6.63;;;3.50;;
803;SDS011;25687;49.976;8.240;2023-06-14T05:06:43;4.63;;;3.43;;
803;SDS011;25687;49.976;8.240;2023-06-14T05:09:14;11.60;;;4.77;;
803;SDS011;25687;49.976;8.240;2023-06-14T05:11:41;5.60;;;3.60;;
803;SDS011;25687;49.976;8.240;2023-06-14T05:14:09;5.20;;;3.20;;
803;SDS011;25687;49.976;8.240;2023-06-14T05:16:35;4.20;;;3.50;;
803;SDS011;25687;49.976;8.240;2023-06-14T05:19:00;4.63;;;3.60;;
803;SDS011;25687;49.976;8.240;2023-06-14T05:21:26;6.70;;;3.77;;
803;SDS011;25687;49.976;8.240;2023-06-14T05:23:51;6.10;;;4.13;;
803;SDS011;25687;49.976;8.240;2023-06-14T05:26:16;9.93;;;3.97;;
803;SDS011;25687;49.976;8.240;2023-06-14T05:28:42;5.50;;;3.90;;
803;SDS011;25687;49.976;8.240;2023-06-14T05:31:07;7.83;;;3.53;;
803;SDS011;25687;49.976;8.240;2023-06-14T05:33:32;8.80;;;4.20;;
803;SDS011;25687;49.976;8.240;2023-06-14T05:35:58;7.70;;;3.60;;
803;SDS011;25687;49.976;8.240;2023-06-14T05:38:23;6.50;;;3.50;;
803;SDS011;25687;49.976;8.240;2023-06-14T05:40:48;7.93;;;3.57;;
803;SDS011;25687;49.976;8.240;2023-06-14T05:43:13;3.73;;;3.17;;
803;SDS011;25687;49.976;8.240;2023-06-14T05:45:39;4.27;;;3.17;;
803;SDS011;25687;49.976;8.240;2023-06-14T05:48:04;3.90;;;3.20;;
803;SDS011;25687;49.976;8.240;2023-06-14T05:50:30;5.53;;;3.50;;
803;SDS011;25687;49.976;8.240;2023-06-14T05:52:55;6.13;;;3.20;;
803;SDS011;25687;49.976;8.240;2023-06-14T05:55:20;7.20;;;3.20;;
803;SDS011;25687;49.976;8.240;2023-06-14T05:57:46;4.07;;;2.90;;
803;SDS011;25687;49.976;8.240;2023-06-14T06:00:13;5.27;;;3.20;;
803;SDS011;25687;49.976;8.240;2023-06-14T06:02:42;8.07;;;3.83;;
803;SDS011;25687;49.976;8.240;2023-06-14T06:05:08;9.23;;;3.40;;
803;SDS011;25687;49.976;8.240;2023-06-14T06:07:34;5.53;;;3.50;;
803;SDS011;25687;49.976;8.240;2023-06-14T06:09:59;7.00;;;3.13;;
803;SDS011;25687;49.976;8.240;2023-06-14T06:12:25;8.47;;;3.67;;
803;SDS011;25687;49.976;8.240;2023-06-14T06:14:50;3.40;;;3.07;;
803;SDS011;25687;49.976;8.240;2023-06-14T06:17:15;7.50;;;3.40;;
803;SDS011;25687;49.976;8.240;2023-06-14T06:19:41;4.70;;;2.77;;
803;SDS011;25687;49.976;8.240;2023-06-14T06:22:06;4.83;;;3.10;;
803;SDS011;25687;49.976;8.240;2023-06-14T06:24:31;9.50;;;2.77;;
803;SDS011;25687;49.976;8.240;2023-06-14T06:26:57;11.07;;;3.30;;
803;SDS011;25687;49.976;8.240;2023-06-14T06:29:22;6.87;;;3.43;;
803;SDS011;25687;49.976;8.240;2023-06-14T06:31:47;7.63;;;3.23;;
803;SDS011;25687;49.976;8.240;2023-06-14T06:34:13;9.50;;;3.47;;
803;SDS011;25687;49.976;8.240;2023-06-14T06:36:38;4.53;;;3.33;;
803;SDS011;25687;49.976;8.240;2023-06-14T06:39:03;5.90;;;3.30;;
803;SDS011;25687;49.976;8.240;2023-06-14T06:41:35;8.63;;;3.50;;
803;SDS011;25687;49.976;8.240;2023-06-14T06:44:05;3.63;;;3.20;;
803;SDS011;25687;49.976;8.240;2023-06-14T06:46:30;10.20;;;3.27;;
803;SDS011;25687;49.976;8.240;2023-06-14T06:48:56;10.00;;;3.30;;
803;SDS011;25687;49.976;8.240;2023-06-14T06:51:22;7.07;;;3.23;;
803;SDS011;25687;49.976;8.240;2023-06-14T06:53:51;8.25;;;3.50;;
803;SDS011;25687;49.976;8.240;2023-06-14T06:56:17;6.00;;;3.40;;
803;SDS011;25687;49.976;8.240;2023-06-14T06:58:43;4.68;;;3.70;;
803;SDS011;25687;49.976;8.240;2023-06-14T07:01:08;6.90;;;3.40;;
803;SDS011;25687;49.976;8.240;2023-06-14T07:03:34;6.57;;;3.30;;
803;SDS011;25687;49.976;8.240;2023-06-14T07:06:00;6.83;;;3.20;;
803;SDS011;25687;49.976;8.240;2023-06-14T07:08:25;4.10;;;2.90;;
803;SDS011;25687;49.976;8.240;2023-06-14T07:10:51;5.77;;;3.73;;
803;SDS011;25687;49.976;8.240;2023-06-14T07:13:16;7.60;;;3.30;;
803;SDS011;25687;49.976;8.240;2023-06-14T07:15:41;7.03;;;3.30;;
803;SDS011;25687;49.976;8.240;2023-06-14T07:18:06;5.03;;;3.10;;
803;SDS011;25687;49.976;8.240;2023-06-14T07:20:33;4.57;;;3.10;;
803;SDS011;25687;49.976;8.240;2023-06-14T07:22:58;8.02;;;3.25;;
803;SDS011;25687;49.976;8.240;2023-06-14T07:25:23;5.30;;;2.72;;
803;SDS011;25687;49.976;8.240;2023-06-14T07:27:49;3.00;;;2.80;;
803;SDS011;25687;49.976;8.240;2023-06-14T07:30:14;6.00;;;2.88;;
803;SDS011;25687;49.976;8.240;2023-06-14T07:32:39;10.27;;;2.80;;
803;SDS011;25687;49.976;8.240;2023-06-14T07:35:05;4.95;;;2.60;;
803;SDS011;25687;49.976;8.240;2023-06-14T07:37:31;6.32;;;2.70;;
803;SDS011;25687;49.976;8.240;2023-06-14T07:39:56;4.25;;;2.55;;
803;SDS011;25687;49.976;8.240;2023-06-14T07:42:22;7.15;;;2.67;;
803;SDS011;25687;49.976;8.240;2023-06-14T07:44:47;10.45;;;2.85;;
803;SDS011;25687;49.976;8.240;2023-06-14T07:47:12;4.53;;;2.83;;
803;SDS011;25687;49.976;8.240;2023-06-14T07:49:37;7.90;;;2.90;;
803;SDS011;25687;49.976;8.240;2023-06-14T07:52:03;7.15;;;2.80;;
803;SDS011;25687;49.976;8.240;2023-06-14T07:54:29;5.00;;;2.65;;
803;SDS011;25687;49.976;8.240;2023-06-14T07:56:56;5.07;;;2.65;;
803;SDS011;25687;49.976;8.240;2023-06-14T07:59:22;3.95;;;2.47;;
803;SDS011;25687;49.976;8.240;2023-06-14T08:01:47;8.60;;;2.60;;
803;SDS011;25687;49.976;8.240;2023-06-14T08:04:13;11.45;;;2.83;;
803;SDS011;25687;49.976;8.240;2023-06-14T08:06:39;4.97;;;2.80;;
803;SDS011;25687;49.976;8.240;2023-06-14T08:09:05;8.45;;;2.40;;
803;SDS011;25687;49.976;8.240;2023-06-14T08:11:30;9.88;;;2.35;;
803;SDS011;25687;49.976;8.240;2023-06-14T08:13:56;4.18;;;2.15;;
803;SDS011;25687;49.976;8.240;2023-06-14T08:16:21;6.38;;;2.88;;
803;SDS011;25687;49.976;8.240;2023-06-14T08:18:46;6.32;;;2.67;;
803;SDS011;25687;49.976;8.240;2023-06-14T08:21:11;4.88;;;2.22;;
803;SDS011;25687;49.976;8.240;2023-06-14T08:23:39;3.08;;;2.40;;
803;SDS011;25687;49.976;8.240;2023-06-14T08:26:05;2.67;;;2.40;;
803;SDS011;25687;49.976;8.240;2023-06-14T08:28:31;4.22;;;2.05;;
803;SDS011;25687;49.976;8.240;2023-06-14T08:30:56;4.32;;;2.33;;
803;SDS011;25687;49.976;8.240;2023-06-14T08:33:21;2.17;;;2.03;;
803;SDS011;25687;49.976;8.240;2023-06-14T08:35:46;6.13;;;2.03;;
803;SDS011;25687;49.976;8.240;2023-06-14T08:38:12;5.72;;;2.10;;
803;SDS011;25687;49.976;8.240;2023-06-14T08:40:38;5.18;;;2.10;;
803;SDS011;25687;49.976;8.240;2023-06-14T08:43:04;3.13;;;2.20;;
803;SDS011;25687;49.976;8.240;2023-06-14T08:45:30;2.78;;;2.25;;
803;SDS011;25687;49.976;8.240;2023-06-14T08:47:56;2.90;;;2.10;;
803;SDS011;25687;49.976;8.240;2023-06-14T08:50:25;2.30;;;2.10;;
803;SDS011;25687;49.976;8.240;2023-06-14T08:52:55;5.03;;;1.75;;
803;SDS011;25687;49.976;8.240;2023-06-14T08:55:25;6.53;;;1.95;;
803;SDS011;25687;49.976;8.240;2023-06-14T08:57:53;11.00;;;2.20;;
803;SDS011;25687;49.976;8.240;2023-06-14T09:00:19;3.70;;;1.85;;
803;SDS011;25687;49.976;8.240;2023-06-14T09:02:46;2.05;;;1.92;;
803;SDS011;25687;49.976;8.240;2023-06-14T09:05:12;3.95;;;2.33;;
803;SDS011;25687;49.976;8.240;2023-06-14T09:07:39;5.07;;;2.10;;
803;SDS011;25687;49.976;8.240;2023-06-14T09:10:16;2.78;;;1.63;;
803;SDS011;25687;49.976;8.240;2023-06-14T09:12:42;5.65;;;2.30;;
803;SDS011;25687;49.976;8.240;2023-06-14T09:15:07;3.17;;;1.60;;
803;SDS011;25687;49.976;8.240;2023-06-14T09:17:37;1.95;;;1.75;;
803;SDS011;25687;49.976;8.240;2023-06-14T09:20:07;3.15;;;2.20;;
803;SDS011;25687;49.976;8.240;2023-06-14T09:22:35;3.47;;;1.67;;
803;SDS011;25687;49.976;8.240;2023-06-14T09:25:04;1.63;;;1.50;;
803;SDS011;25687;49.976;8.240;2023-06-14T09:27:30;2.85;;;1.60;;
803;SDS011;25687;49.976;8.240;2023-06-14T09:29:57;1.33;;;1.13;;
803;SDS011;25687;49.976;8.240;2023-06-14T09:32:22;2.30;;;1.40;;
803;SDS011;25687;49.976;8.240;2023-06-14T09:34:48;3.30;;;1.75;;
803;SDS011;25687;49.976;8.240;2023-06-14T09:37:25;1.70;;;1.30;;
803;SDS011;25687;49.976;8.240;2023-06-14T09:39:52;2.15;;;1.60;;
803;SDS011;25687;49.976;8.240;2023-06-14T09:42:18;1.80;;;1.50;;
803;SDS011;25687;49.976;8.240;2023-06-14T09:44:45;1.65;;;1.55;;
803;SDS011;25687;49.976;8.240;2023-06-14T09:47:12;2.25;;;1.50;;
803;SDS011;25687;49.976;8.240;2023-06-14T09:49:42;3.40;;;1.83;;
803;SDS011;25687;49.976;8.240;2023-06-14T09:52:10;5.57;;;1.42;;
803;SDS011;25687;49.976;8.240;2023-06-14T09:54:40;3.50;;;1.70;;
803;SDS011;25687;49.976;8.240;2023-06-14T09:57:11;3.95;;;1.35;;
803;SDS011;25687;49.976;8.240;2023-06-14T09:59:40;4.95;;;1.42;;
803;SDS011;25687;49.976;8.240;2023-06-14T10:02:09;2.33;;;1.38;;
803;SDS011;25687;49.976;8.240;2023-06-14T10:04:39;6.03;;;1.70;;
803;SDS011;25687;49.976;8.240;2023-06-14T10:07:11;1.60;;;1.50;;
803;SDS011;25687;49.976;8.240;2023-06-14T10:09:41;2.00;;;1.80;;
803;SDS011;25687;49.976;8.240;2023-06-14T10:12:09;3.92;;;1.70;;
803;SDS011;25687;49.976;8.240;2023-06-14T10:14:35;6.68;;;1.48;;
803;SDS011;25687;49.976;8.240;2023-06-14T10:17:08;3.00;;;1.30;;
803;SDS011;25687;49.976;8.240;2023-06-14T10:19:46;1.70;;;1.40;;
803;SDS011;25687;49.976;8.240;2023-06-14T10:22:18;3.35;;;1.50;;
803;SDS011;25687;49.976;8.240;2023-06-14T10:24:50;1.83;;;1.60;;
803;SDS011;25687;49.976;8.240;2023-06-14T10:27:15;2.58;;;1.38;;
803;SDS011;25687;49.976;8.240;2023-06-14T10:32:21;3.35;;;1.75;;
803;SDS011;25687;49.976;8.240;2023-06-14T10:34:53;2.22;;;1.50;;
803;SDS011;25687;49.976;8.240;2023-06-14T10:37:22;1.92;;;1.30;;
803;SDS011;25687;49.976;8.240;2023-06-14T10:39:49;3.17;;;1.60;;
803;SDS011;25687;49.976;8.240;2023-06-14T10:42:15;1.75;;;1.65;;
803;SDS011;25687;49.976;8.240;2023-06-14T10:44:42;3.88;;;1.55;;
803;SDS011;25687;49.976;8.240;2023-06-14T10:47:21;5.05;;;1.63;;
803;SDS011;25687;49.976;8.240;2023-06-14T10:50:06;1.60;;;1.50;;
803;SDS011;25687;49.976;8.240;2023-06-14T10:52:34;1.70;;;1.60;;
803;SDS011;25687;49.976;8.240;2023-06-14T10:55:03;3.53;;;1.80;;
803;SDS011;25687;49.976;8.240;2023-06-14T10:57:34;3.87;;;1.70;;
803;SDS011;25687;49.976;8.240;2023-06-14T11:00:01;1.90;;;1.70;;
803;SDS011;25687;49.976;8.240;2023-06-14T11:11:29;5.57;;;1.50;;
803;SDS011;25687;49.976;8.240;2023-06-14T11:13:58;2.13;;;1.53;;
803;SDS011;25687;49.976;8.240;2023-06-14T11:16:26;2.03;;;1.80;;
803;SDS011;25687;49.976;8.240;2023-06-14T11:18:53;3.50;;;1.67;;
803;SDS011;25687;49.976;8.240;2023-06-14T11:21:18;2.40;;;2.00;;
803;SDS011;25687;49.976;8.240;2023-06-14T11:23:50;6.00;;;1.40;;
803;SDS011;25687;49.976;8.240;2023-06-14T11:26:24;3.90;;;2.47;;
803;SDS011;25687;49.976;8.240;2023-06-14T11:28:56;2.03;;;1.63;;
803;SDS011;25687;49.976;8.240;2023-06-14T11:31:23;1.90;;;1.77;;
803;SDS011;25687;49.976;8.240;2023-06-14T11:33:49;2.97;;;1.77;;
803;SDS011;25687;49.976;8.240;2023-06-14T11:36:15;2.00;;;1.77;;
803;SDS011;25687;49.976;8.240;2023-06-14T11:38:40;1.83;;;1.50;;
803;SDS011;25687;49.976;8.240;2023-06-14T11:41:06;3.70;;;1.80;;
803;SDS011;25687;49.976;8.240;2023-06-14T11:43:31;3.30;;;2.00;;
803;SDS011;25687;49.976;8.240;2023-06-14T11:45:59;4.20;;;1.90;;
803;SDS011;25687;49.976;8.240;2023-06-14T11:48:41;2.67;;;1.70;;
803;SDS011;25687;49.976;8.240;2023-06-14T11:51:07;3.23;;;2.07;;
803;SDS011;25687;49.976;8.240;2023-06-14T11:53:32;3.00;;;1.77;;
803;SDS011;25687;49.976;8.240;2023-06-14T11:55:58;5.00;;;1.80;;
803;SDS011;25687;49.976;8.240;2023-06-14T11:58:24;1.70;;;1.60;;
803;SDS011;25687;49.976;8.240;2023-06-14T12:00:50;1.80;;;1.70;;
803;SDS011;25687;49.976;8.240;2023-06-14T12:03:16;4.83;;;2.10;;
803;SDS011;25687;49.976;8.240;2023-06-14T12:05:41;5.13;;;2.27;;
803;SDS011;25687;49.976;8.240;2023-06-14T12:08:06;3.97;;;1.90;;
803;SDS011;25687;49.976;8.240;2023-06-14T12:10:39;2.37;;;1.90;;
803;SDS011;25687;49.976;8.240;2023-06-14T12:13:06;4.57;;;1.80;;
803;SDS011;25687;49.976;8.240;2023-06-14T12:15:31;2.60;;;1.87;;
803;SDS011;25687;49.976;8.240;2023-06-14T12:17:57;3.03;;;1.73;;
803;SDS011;25687;49.976;8.240;2023-06-14T12:20:28;2.67;;;2.00;;
803;SDS011;25687;49.976;8.240;2023-06-14T12:22:57;2.20;;;2.00;;
803;SDS011;25687;49.976;8.240;2023-06-14T12:25:30;3.67;;;1.83;;
803;SDS011;25687;49.976;8.240;2023-06-14T12:28:04;8.13;;;2.13;;
803;SDS011;25687;49.976;8.240;2023-06-14T12:30:33;2.73;;;2.07;;
803;SDS011;25687;49.976;8.240;2023-06-14T12:33:01;3.13;;;1.83;;
803;SDS011;25687;49.976;8.240;2023-06-14T12:35:26;5.83;;;2.00;;
803;SDS011;25687;49.976;8.240;2023-06-14T12:37:52;3.70;;;1.90;;
803;SDS011;25687;49.976;8.240;2023-06-14T12:40:17;6.03;;;2.10;;
803;SDS011;25687;49.976;8.240;2023-06-14T12:42:44;3.03;;;2.20;;
803;SDS011;25687;49.976;8.240;2023-06-14T12:45:10;5.10;;;2.50;;
803;SDS011;25687;49.976;8.240;2023-06-14T12:47:35;3.43;;;2.00;;
803;SDS011;25687;49.976;8.240;2023-06-14T12:50:01;3.80;;;2.10;;
803;SDS011;25687;49.976;8.240;2023-06-14T12:52:26;2.13;;;1.90;;
803;SDS011;25687;49.976;8.240;2023-06-14T12:54:51;3.90;;;2.23;;
803;SDS011;25687;49.976;8.240;2023-06-14T12:57:17;2.53;;;2.20;;
803;SDS011;25687;49.976;8.240;2023-06-14T12:59:42;7.90;;;2.30;;
803;SDS011;25687;49.976;8.240;2023-06-14T13:02:14;6.37;;;2.10;;
803;SDS011;25687;49.976;8.240;2023-06-14T13:04:40;4.93;;;1.70;;
803;SDS011;25687;49.976;8.240;2023-06-14T13:07:06;3.73;;;1.90;;
803;SDS011;25687;49.976;8.240;2023-06-14T13:09:31;2.80;;;2.10;;
803;SDS011;25687;49.976;8.240;2023-06-14T13:11:56;4.33;;;1.80;;
803;SDS011;25687;49.976;8.240;2023-06-14T13:14:22;3.17;;;1.70;;
803;SDS011;25687;49.976;8.240;2023-06-14T13:16:47;4.67;;;2.03;;
803;SDS011;25687;49.976;8.240;2023-06-14T13:19:13;3.37;;;2.00;;
803;SDS011;25687;49.976;8.240;2023-06-14T13:21:38;2.93;;;1.80;;
803;SDS011;25687;49.976;8.240;2023-06-14T13:24:03;2.80;;;2.20;;
803;SDS011;25687;49.976;8.240;2023-06-14T13:26:29;4.00;;;1.80;;
803;SDS011;25687;49.976;8.240;2023-06-14T13:28:54;4.07;;;1.90;;
803;SDS011;25687;49.976;8.240;2023-06-14T13:31:19;3.97;;;1.70;;
803;SDS011;25687;49.976;8.240;2023-06-14T13:33:45;2.83;;;1.70;;
803;SDS011;25687;49.976;8.240;2023-06-14T13:36:10;4.80;;;1.97;;
803;SDS011;25687;49.976;8.240;2023-06-14T13:38:35;4.57;;;1.60;;
803;SDS011;25687;49.976;8.240;2023-06-14T13:41:01;3.70;;;1.93;;
803;SDS011;25687;49.976;8.240;2023-06-14T13:43:26;4.17;;;1.77;;
803;SDS011;25687;49.976;8.240;2023-06-14T13:45:51;6.70;;;1.90;;
803;SDS011;25687;49.976;8.240;2023-06-14T13:48:16;2.37;;;2.10;;
803;SDS011;25687;49.976;8.240;2023-06-14T13:50:42;3.93;;;1.73;;
803;SDS011;25687;49.976;8.240;2023-06-14T13:53:07;5.90;;;2.00;;
803;SDS011;25687;49.976;8.240;2023-06-14T13:55:32;4.20;;;1.97;;
803;SDS011;25687;49.976;8.240;2023-06-14T13:57:58;3.73;;;2.17;;
803;SDS011;25687;49.976;8.240;2023-06-14T14:00:23;3.23;;;1.90;;
803;SDS011;25687;49.976;8.240;2023-06-14T14:02:48;2.87;;;2.13;;
803;SDS011;25687;49.976;8.240;2023-06-14T14:05:15;4.00;;;2.37;;
803;SDS011;25687;49.976;8.240;2023-06-14T14:07:41;2.67;;;2.10;;
803;SDS011;25687;49.976;8.240;2023-06-14T14:10:06;4.77;;;2.37;;
803;SDS011;25687;49.976;8.240;2023-06-14T14:12:32;4.00;;;2.80;;
803;SDS011;25687;49.976;8.240;2023-06-14T14:14:58;3.87;;;2.10;;
803;SDS011;25687;49.976;8.240;2023-06-14T14:17:23;5.20;;;2.57;;
803;SDS011;25687;49.976;8.240;2023-06-14T14:19:48;7.20;;;2.83;;
803;SDS011;25687;49.976;8.240;2023-06-14T14:22:13;3.80;;;2.47;;
803;SDS011;25687;49.976;8.240;2023-06-14T14:24:39;2.50;;;1.90;;
803;SDS011;25687;49.976;8.240;2023-06-14T14:27:04;3.90;;;2.73;;
803;SDS011;25687;49.976;8.240;2023-06-14T14:29:30;2.40;;;2.20;;
803;SDS011;25687;49.976;8.240;2023-06-14T14:31:55;3.75;;;2.30;;
803;SDS011;25687;49.976;8.240;2023-06-14T14:34:22;4.40;;;2.30;;
803;SDS011;25687;49.976;8.240;2023-06-14T14:36:47;2.60;;;2.13;;
803;SDS011;25687;49.976;8.240;2023-06-14T14:39:13;6.38;;;1.98;;
803;SDS011;25687;49.976;8.240;2023-06-14T14:41:38;6.60;;;2.30;;
803;SDS011;25687;49.976;8.240;2023-06-14T14:44:05;3.90;;;2.17;;
803;SDS011;25687;49.976;8.240;2023-06-14T14:46:30;2.80;;;2.20;;
803;SDS011;25687;49.976;8.240;2023-06-14T14:48:55;2.80;;;2.23;;
803;SDS011;25687;49.976;8.240;2023-06-14T14:51:21;8.00;;;2.20;;
803;SDS011;25687;49.976;8.240;2023-06-14T14:53:46;6.07;;;2.40;;
803;SDS011;25687;49.976;8.240;2023-06-14T14:56:11;2.47;;;2.27;;
803;SDS011;25687;49.976;8.240;2023-06-14T14:58:37;5.60;;;1.93;;
803;SDS011;25687;49.976;8.240;2023-06-14T15:01:02;2.87;;;2.50;;
803;SDS011;25687;49.976;8.240;2023-06-14T15:03:28;4.57;;;2.23;;
803;SDS011;25687;49.976;8.240;2023-06-14T15:05:53;6.27;;;2.50;;
803;SDS011;25687;49.976;8.240;2023-06-14T15:08:18;3.10;;;2.23;;
803;SDS011;25687;49.976;8.240;2023-06-14T15:10:44;5.07;;;2.43;;
803;SDS011;25687;49.976;8.240;2023-06-14T15:13:10;3.40;;;2.60;;
803;SDS011;25687;49.976;8.240;2023-06-14T15:15:36;4.40;;;2.10;;
803;SDS011;25687;49.976;8.240;2023-06-14T15:18:02;4.30;;;2.30;;
803;SDS011;25687;49.976;8.240;2023-06-14T15:20:28;2.60;;;1.90;;
803;SDS011;25687;49.976;8.240;2023-06-14T15:22:54;4.60;;;2.30;;
803;SDS011;25687;49.976;8.240;2023-06-14T15:25:28;4.47;;;2.13;;
803;SDS011;25687;49.976;8.240;2023-06-14T15:27:54;6.43;;;1.90;;